createdAt,value
2022-12-13T00:00:03.182Z,-4.60
2022-12-13T00:01:03.179Z,-4.53
2022-12-13T00:02:03.221Z,-4.53
2022-12-13T00:03:03.168Z,-4.52
2022-12-13T00:04:03.213Z,-4.59
2022-12-13T00:05:03.159Z,-4.50
2022-12-13T00:06:03.267Z,-4.45
2022-12-13T00:07:03.135Z,-4.57
2022-12-13T00:08:03.171Z,-4.66
2022-12-13T00:09:03.122Z,-4.61
2022-12-13T00:10:03.111Z,-4.69
2022-12-13T00:11:03.109Z,-4.64
2022-12-13T00:12:03.104Z,-4.85
2022-12-13T00:13:03.093Z,-4.78
2022-12-13T00:14:03.096Z,-4.82
2022-12-13T00:15:03.069Z,-4.81
2022-12-13T00:16:04.257Z,-4.84
2022-12-13T00:17:03.082Z,-4.78
2022-12-13T00:18:03.061Z,-4.85
2022-12-13T00:19:03.045Z,-4.75
2022-12-13T00:20:03.052Z,-4.85
2022-12-13T00:21:03.851Z,-4.87
2022-12-13T00:22:03.023Z,-4.95
2022-12-13T00:23:03.010Z,-5.10
2022-12-13T00:24:03.025Z,-5.24
2022-12-13T00:25:03.012Z,-5.17
2022-12-13T00:26:03.015Z,-5.18
2022-12-13T00:27:55.234Z,-5.13
2022-12-13T00:28:55.221Z,-5.27
2022-12-13T00:29:55.214Z,-5.14
2022-12-13T00:30:55.246Z,-5.10
2022-12-13T00:32:00.529Z,-5.19
2022-12-13T00:32:57.274Z,-5.19
2022-12-13T00:33:56.297Z,-5.18
2022-12-13T00:34:56.272Z,-5.17
2022-12-13T00:35:56.270Z,-5.13
2022-12-13T00:36:56.251Z,-5.35
2022-12-13T00:37:56.243Z,-5.25
2022-12-13T00:38:56.244Z,-5.22
2022-12-13T00:39:56.222Z,-5.24
2022-12-13T00:40:56.212Z,-5.25
2022-12-13T00:41:56.206Z,-5.33
2022-12-13T00:42:56.216Z,-5.21
2022-12-13T00:43:56.222Z,-5.25
2022-12-13T00:44:56.224Z,-5.25
2022-12-13T00:45:56.235Z,-5.27
2022-12-13T00:46:56.171Z,-5.27
2022-12-13T00:47:56.172Z,-5.28
2022-12-13T00:48:56.155Z,-5.31
2022-12-13T00:49:56.155Z,-5.31
2022-12-13T00:50:56.140Z,-5.25
2022-12-13T00:51:56.134Z,-5.21
2022-12-13T00:52:56.132Z,-5.13
2022-12-13T00:53:56.122Z,-5.13
2022-12-13T00:54:56.112Z,-5.14
2022-12-13T00:55:56.101Z,-5.06
2022-12-13T00:56:56.101Z,-5.06
2022-12-13T00:57:56.107Z,-4.99
2022-12-13T00:58:56.091Z,-5.06
2022-12-13T00:59:56.081Z,-4.95
2022-12-13T01:00:56.131Z,-5.06
2022-12-13T01:01:56.108Z,-5.14
2022-12-13T01:02:56.081Z,-5.05
2022-12-13T01:03:56.045Z,-5.09
2022-12-13T01:04:56.039Z,-5.13
2022-12-13T01:06:58.014Z,-5.10
2022-12-13T01:07:56.053Z,-5.25
2022-12-13T01:08:56.006Z,-5.27
2022-12-13T01:09:56.007Z,-5.17
2022-12-13T01:10:55.997Z,-5.29
2022-12-13T01:11:55.970Z,-5.19
2022-12-13T01:12:55.969Z,-5.09
2022-12-13T01:13:55.964Z,-5.28
2022-12-13T01:14:56.320Z,-5.29
2022-12-13T01:15:56.942Z,-5.24
2022-12-13T01:16:56.063Z,-5.33
2022-12-13T01:17:55.939Z,-5.33
2022-12-13T01:18:55.923Z,-5.43
2022-12-13T01:19:55.924Z,-5.47
2022-12-13T01:20:55.914Z,-5.42
2022-12-13T01:21:55.909Z,-5.63
2022-12-13T01:22:55.895Z,-5.66
2022-12-13T01:23:57.445Z,-5.74
2022-12-13T01:24:55.881Z,-5.71
2022-12-13T01:25:55.878Z,-5.71
2022-12-13T01:26:57.034Z,-5.72
2022-12-13T01:27:55.855Z,-5.75
2022-12-13T01:28:55.855Z,-5.71
2022-12-13T01:29:55.844Z,-5.74
2022-12-13T01:30:55.861Z,-5.81
2022-12-13T01:31:56.375Z,-5.82
2022-12-13T01:32:55.819Z,-5.85
2022-12-13T01:33:55.804Z,-5.86
2022-12-13T01:34:55.808Z,-5.92
2022-12-13T01:35:55.793Z,-5.93
2022-12-13T01:36:58.366Z,-5.86
2022-12-13T01:37:55.782Z,-5.85
2022-12-13T01:38:58.786Z,-5.89
2022-12-13T01:39:58.452Z,-5.76
2022-12-13T01:40:55.809Z,-5.78
2022-12-13T01:41:55.784Z,-5.72
2022-12-13T01:42:55.731Z,-5.63
2022-12-13T01:43:56.733Z,-5.75
2022-12-13T01:44:56.444Z,-5.60
2022-12-13T01:45:55.795Z,-5.64
2022-12-13T01:46:55.701Z,-5.64
2022-12-13T01:47:55.709Z,-5.58
2022-12-13T01:48:56.454Z,-5.60
2022-12-13T01:49:55.697Z,-5.57
2022-12-13T01:50:55.694Z,-5.63
2022-12-13T01:51:55.672Z,-5.61
2022-12-13T01:52:55.651Z,-5.63
2022-12-13T01:53:55.648Z,-5.71
2022-12-13T01:54:55.641Z,-5.71
2022-12-13T01:55:56.632Z,-5.67
2022-12-13T01:57:00.928Z,-5.78
2022-12-13T01:57:56.628Z,-5.74
2022-12-13T01:58:55.609Z,-5.75
2022-12-13T01:59:55.605Z,-5.72
2022-12-13T02:00:55.604Z,-5.75
2022-12-13T02:02:00.913Z,-5.67
2022-12-13T02:02:56.588Z,-5.64
2022-12-13T02:03:55.572Z,-5.63
2022-12-13T02:04:55.625Z,-5.58
2022-12-13T02:05:55.553Z,-5.58
2022-12-13T02:06:55.558Z,-5.54
2022-12-13T02:07:55.634Z,-5.51
2022-12-13T02:08:55.537Z,-5.51
2022-12-13T02:09:56.525Z,-5.57
2022-12-13T02:10:55.538Z,-5.49
2022-12-13T02:11:55.509Z,-5.51
2022-12-13T02:12:55.509Z,-5.54
2022-12-13T02:13:55.593Z,-5.43
2022-12-13T02:14:55.484Z,-5.47
2022-12-13T02:15:56.527Z,-5.53
2022-12-13T02:16:55.481Z,-5.51
2022-12-13T02:17:55.479Z,-5.60
2022-12-13T02:18:55.482Z,-5.60
2022-12-13T02:19:55.967Z,-5.64
2022-12-13T02:20:55.449Z,-5.61
2022-12-13T02:21:56.385Z,-5.61
2022-12-13T02:22:56.449Z,-5.72
2022-12-13T02:23:55.432Z,-5.64
2022-12-13T02:24:55.420Z,-5.74
2022-12-13T02:25:55.430Z,-5.76
2022-12-13T02:26:55.445Z,-5.66
2022-12-13T02:28:00.646Z,-5.84
2022-12-13T02:28:56.420Z,-5.76
2022-12-13T02:29:55.390Z,-5.76
2022-12-13T02:30:55.410Z,-5.85
2022-12-13T02:31:55.359Z,-5.86
2022-12-13T02:32:56.348Z,-5.97
2022-12-13T02:33:55.348Z,-5.95
2022-12-13T02:34:55.357Z,-5.90
2022-12-13T02:35:55.323Z,-5.85
2022-12-13T02:36:55.320Z,-5.79
2022-12-13T02:37:55.310Z,-5.82
2022-12-13T02:38:55.302Z,-5.96
2022-12-13T02:39:55.298Z,-6.08
2022-12-13T02:40:55.292Z,-6.05
2022-12-13T02:41:56.281Z,-5.92
2022-12-13T02:42:55.290Z,-5.97
2022-12-13T02:44:01.135Z,-5.97
2022-12-13T02:44:56.272Z,-6.14
2022-12-13T02:45:55.332Z,-6.14
2022-12-13T02:46:55.973Z,-6.17
2022-12-13T02:47:55.241Z,-6.17
2022-12-13T02:48:55.230Z,-6.17
2022-12-13T02:49:55.214Z,-6.21
2022-12-13T02:50:55.227Z,-6.21
2022-12-13T02:51:55.209Z,-6.29
2022-12-13T02:52:55.194Z,-6.36
2022-12-13T02:53:55.183Z,-6.41
2022-12-13T02:54:55.182Z,-6.35
2022-12-13T02:55:55.177Z,-6.28
2022-12-13T02:56:55.176Z,-6.26
2022-12-13T02:57:55.162Z,-6.15
2022-12-13T02:58:55.154Z,-6.24
2022-12-13T02:59:55.138Z,-6.21
2022-12-13T03:00:55.134Z,-6.21
2022-12-13T03:01:55.181Z,-6.24
2022-12-13T03:02:57.205Z,-6.03
2022-12-13T03:03:55.106Z,-6.21
2022-12-13T03:04:55.100Z,-6.15
2022-12-13T03:05:55.094Z,-6.24
2022-12-13T03:06:55.088Z,-6.21
2022-12-13T03:07:55.113Z,-6.14
2022-12-13T03:08:55.088Z,-6.23
2022-12-13T03:09:55.066Z,-6.29
2022-12-13T03:10:55.061Z,-6.26
2022-12-13T03:11:55.047Z,-6.29
2022-12-13T03:12:55.040Z,-6.26
2022-12-13T03:13:55.031Z,-6.20
2022-12-13T03:14:55.025Z,-6.15
2022-12-13T03:15:55.086Z,-6.10
2022-12-13T03:16:55.004Z,-5.96
2022-12-13T03:17:55.018Z,-6.03
2022-12-13T03:18:54.997Z,-5.96
2022-12-13T03:19:54.992Z,-5.93
2022-12-13T03:20:54.985Z,-6.03
2022-12-13T03:21:54.966Z,-6.05
2022-12-13T03:22:54.978Z,-5.97
2022-12-13T03:23:54.950Z,-6.05
2022-12-13T03:24:54.943Z,-5.96
2022-12-13T03:25:54.942Z,-5.93
2022-12-13T03:26:54.932Z,-5.96
2022-12-13T03:27:54.919Z,-5.99
2022-12-13T03:28:54.910Z,-6.13
2022-12-13T03:29:54.915Z,-6.13
2022-12-13T03:30:54.948Z,-5.96
2022-12-13T03:31:54.899Z,-5.93
2022-12-13T03:32:54.882Z,-5.89
2022-12-13T03:33:54.948Z,-5.95
2022-12-13T03:35:00.746Z,-5.86
2022-12-13T03:35:55.856Z,-5.81
2022-12-13T03:36:54.914Z,-5.82
2022-12-13T03:37:54.843Z,-5.93
2022-12-13T03:38:54.829Z,-5.96
2022-12-13T03:39:54.833Z,-5.85
2022-12-13T03:40:54.833Z,-5.90
2022-12-13T03:41:54.830Z,-6.02
2022-12-13T03:42:54.817Z,-6.24
2022-12-13T03:43:54.799Z,-6.14
2022-12-13T03:44:54.784Z,-6.13
2022-12-13T03:45:54.809Z,-6.17
2022-12-13T03:46:54.833Z,-6.34
2022-12-13T03:47:54.782Z,-6.36
2022-12-13T03:48:54.770Z,-6.39
2022-12-13T03:49:54.803Z,-6.29
2022-12-13T03:50:54.757Z,-6.32
2022-12-13T03:51:54.750Z,-6.42
2022-12-13T03:52:54.731Z,-6.41
2022-12-13T03:53:54.739Z,-6.38
2022-12-13T03:54:54.718Z,-6.34
2022-12-13T03:55:54.717Z,-6.44
2022-12-13T03:56:54.700Z,-6.29
2022-12-13T03:57:54.692Z,-6.36
2022-12-13T03:58:54.694Z,-6.28
2022-12-13T03:59:54.681Z,-6.29
2022-12-13T04:00:54.671Z,-6.35
2022-12-13T04:01:55.041Z,-6.46
2022-12-13T04:02:54.721Z,-6.24
2022-12-13T04:03:54.641Z,-6.31
2022-12-13T04:04:54.650Z,-6.29
2022-12-13T04:05:55.633Z,-6.24
2022-12-13T04:06:54.631Z,-6.26
2022-12-13T04:07:54.629Z,-6.21
2022-12-13T04:08:55.627Z,-6.15
2022-12-13T04:09:54.611Z,-6.15
2022-12-13T04:10:54.596Z,-6.15
2022-12-13T04:11:54.593Z,-6.18
2022-12-13T04:12:54.588Z,-6.14
2022-12-13T04:13:55.568Z,-6.11
2022-12-13T04:14:56.494Z,-6.08
2022-12-13T04:15:54.597Z,-6.13
2022-12-13T04:16:54.546Z,-6.21
2022-12-13T04:17:54.540Z,-6.44
2022-12-13T04:18:54.528Z,-6.49
2022-12-13T04:19:54.524Z,-6.47
2022-12-13T04:20:54.541Z,-6.41
2022-12-13T04:21:54.709Z,-6.38
2022-12-13T04:22:55.501Z,-6.35
2022-12-13T04:23:54.494Z,-6.47
2022-12-13T04:24:54.580Z,-6.44
2022-12-13T04:25:54.503Z,-6.68
2022-12-13T04:26:54.478Z,-6.79
2022-12-13T04:27:54.467Z,-6.63
2022-12-13T04:28:54.969Z,-6.63
2022-12-13T04:29:55.483Z,-6.63
2022-12-13T04:30:54.443Z,-6.49
2022-12-13T04:31:54.480Z,-6.50
2022-12-13T04:32:54.429Z,-6.50
2022-12-13T04:33:54.421Z,-6.60
2022-12-13T04:35:01.263Z,-6.52
2022-12-13T04:35:55.406Z,-6.50
2022-12-13T04:36:54.398Z,-6.44
2022-12-13T04:37:54.396Z,-6.54
2022-12-13T04:38:54.383Z,-6.41
2022-12-13T04:39:54.384Z,-6.41
2022-12-13T04:40:55.368Z,-6.42
2022-12-13T04:41:54.355Z,-6.41
2022-12-13T04:42:54.582Z,-6.38
2022-12-13T04:43:54.350Z,-6.41
2022-12-13T04:44:54.331Z,-6.52
2022-12-13T04:45:54.384Z,-6.49
2022-12-13T04:46:54.313Z,-6.44
2022-12-13T04:47:55.309Z,-6.58
2022-12-13T04:48:54.300Z,-6.46
2022-12-13T04:49:54.290Z,-6.50
2022-12-13T04:50:54.294Z,-6.44
2022-12-13T04:52:00.406Z,-6.39
2022-12-13T04:52:56.277Z,-6.36
2022-12-13T04:53:54.269Z,-6.49
2022-12-13T04:54:55.744Z,-6.54
2022-12-13T04:55:54.268Z,-6.54
2022-12-13T04:56:54.491Z,-6.65
2022-12-13T04:57:54.238Z,-6.69
2022-12-13T04:58:54.226Z,-6.60
2022-12-13T04:59:54.896Z,-6.49
2022-12-13T05:00:54.253Z,-6.47
2022-12-13T05:01:54.255Z,-6.54
2022-12-13T05:02:54.281Z,-6.42
2022-12-13T05:03:54.184Z,-6.50
2022-12-13T05:04:54.636Z,-6.44
2022-12-13T05:05:54.172Z,-6.39
2022-12-13T05:06:54.178Z,-6.44
2022-12-13T05:07:54.215Z,-6.44
2022-12-13T05:08:54.159Z,-6.46
2022-12-13T05:09:54.138Z,-6.41
2022-12-13T05:10:54.130Z,-6.38
2022-12-13T05:12:00.861Z,-6.54
2022-12-13T05:12:55.112Z,-6.54
2022-12-13T05:13:54.115Z,-6.54
2022-12-13T05:14:54.105Z,-6.60
2022-12-13T05:15:55.306Z,-6.63
2022-12-13T05:16:55.102Z,-6.69
2022-12-13T05:17:54.087Z,-6.56
2022-12-13T05:20:00.845Z,-6.68
2022-12-13T05:21:00.840Z,-6.84
2022-12-13T05:22:01.492Z,-6.63
2022-12-13T05:23:01.929Z,-6.69
2022-12-13T05:24:01.910Z,-6.66
2022-12-13T05:25:01.904Z,-6.72
2022-12-13T05:26:01.886Z,-6.69
2022-12-13T05:27:01.886Z,-6.71
2022-12-13T05:28:08.797Z,-6.68
2022-12-13T05:29:02.874Z,-6.65
2022-12-13T05:30:04.366Z,-6.56
2022-12-13T05:31:02.890Z,-6.69
2022-12-13T05:32:01.892Z,-6.58
2022-12-13T05:33:01.843Z,-6.63
2022-12-13T05:34:01.885Z,-6.79
2022-12-13T05:35:01.815Z,-6.69
2022-12-13T05:36:02.360Z,-6.71
2022-12-13T05:37:02.810Z,-6.86
2022-12-13T05:38:01.801Z,-6.79
2022-12-13T05:39:01.796Z,-6.78
2022-12-13T05:40:02.795Z,-6.81
2022-12-13T05:41:01.782Z,-6.78
2022-12-13T05:42:02.839Z,-6.76
2022-12-13T05:43:02.154Z,-6.76
2022-12-13T05:44:02.760Z,-6.76
2022-12-13T05:45:01.746Z,-6.79
2022-12-13T05:46:01.753Z,-6.83
2022-12-13T05:47:02.345Z,-6.84
2022-12-13T05:48:01.724Z,-6.87
2022-12-13T05:49:02.711Z,-6.79
2022-12-13T05:50:01.718Z,-6.61
2022-12-13T05:51:10.930Z,-6.66
2022-12-13T05:52:02.691Z,-6.61
2022-12-13T05:53:01.683Z,-6.63
2022-12-13T05:54:01.759Z,-6.65
2022-12-13T05:55:02.667Z,-6.68
2022-12-13T05:56:02.713Z,-6.63
2022-12-13T05:57:01.659Z,-6.56
2022-12-13T05:58:02.300Z,-6.66
2022-12-13T05:59:01.636Z,-6.65
2022-12-13T06:00:01.679Z,-6.66
2022-12-13T06:01:01.659Z,-6.60
2022-12-13T06:02:01.862Z,-6.65
2022-12-13T06:03:02.181Z,-6.68
2022-12-13T06:04:01.606Z,-6.69
2022-12-13T06:05:01.601Z,-6.79
2022-12-13T06:06:01.578Z,-6.93
2022-12-13T06:07:03.320Z,-6.96
2022-12-13T06:08:01.611Z,-7.00
2022-12-13T06:09:01.599Z,-7.03
2022-12-13T06:10:10.355Z,-7.11
2022-12-13T06:11:10.838Z,-7.10
2022-12-13T06:12:02.556Z,-7.04
2022-12-13T06:13:02.679Z,-7.05
2022-12-13T06:14:02.526Z,-7.00
2022-12-13T06:15:01.817Z,-7.03
2022-12-13T06:16:02.039Z,-6.90
2022-12-13T06:17:02.290Z,-6.86
2022-12-13T06:18:01.496Z,-7.07
2022-12-13T06:19:04.539Z,-6.96
2022-12-13T06:20:02.486Z,-6.84
2022-12-13T06:21:02.502Z,-6.94
2022-12-13T06:22:01.461Z,-6.86
2022-12-13T06:23:01.456Z,-6.76
2022-12-13T06:24:01.457Z,-6.86
2022-12-13T06:25:02.231Z,-6.83
2022-12-13T06:26:01.447Z,-6.86
2022-12-13T06:27:01.443Z,-6.81
2022-12-13T06:28:01.652Z,-6.69
2022-12-13T06:29:01.424Z,-6.74
2022-12-13T06:30:02.761Z,-6.84
2022-12-13T06:31:02.446Z,-6.81
2022-12-13T06:32:03.276Z,-6.79
2022-12-13T06:33:01.406Z,-6.79
2022-12-13T06:34:01.374Z,-6.75
2022-12-13T06:35:27.156Z,-6.78
2022-12-13T06:36:02.358Z,-6.78
2022-12-13T06:37:01.739Z,-6.76
2022-12-13T06:38:02.099Z,-6.78
2022-12-13T06:39:01.338Z,-6.83
2022-12-13T06:40:02.221Z,-6.89
2022-12-13T06:41:02.089Z,-6.90
2022-12-13T06:42:01.331Z,-6.92
2022-12-13T06:43:01.309Z,-6.97
2022-12-13T06:44:01.429Z,-6.96
2022-12-13T06:45:01.309Z,-7.00
2022-12-13T06:46:01.345Z,-6.99
2022-12-13T06:47:10.808Z,-6.99
2022-12-13T06:48:02.274Z,-7.10
2022-12-13T06:49:01.260Z,-7.11
2022-12-13T06:50:05.538Z,-7.14
2022-12-13T06:51:01.244Z,-7.17
2022-12-13T06:52:01.281Z,-7.17
2022-12-13T06:53:01.265Z,-7.26
2022-12-13T06:54:01.239Z,-7.13
2022-12-13T06:55:01.248Z,-7.14
2022-12-13T06:56:02.748Z,-7.05
2022-12-13T06:57:01.248Z,-7.14
2022-12-13T06:58:01.200Z,-7.11
2022-12-13T06:59:02.278Z,-7.17
2022-12-13T07:00:01.207Z,-7.18
2022-12-13T07:01:01.199Z,-7.23
2022-12-13T07:02:03.909Z,-7.23
2022-12-13T07:03:01.183Z,-7.28
2022-12-13T07:04:01.145Z,-7.42
2022-12-13T07:05:01.145Z,-7.29
2022-12-13T07:06:01.782Z,-7.42
2022-12-13T07:07:02.462Z,-7.38
2022-12-13T07:08:02.165Z,-7.42
2022-12-13T07:09:02.111Z,-7.47
2022-12-13T07:10:01.119Z,-7.47
2022-12-13T07:11:01.094Z,-7.42
2022-12-13T07:12:01.094Z,-7.31
2022-12-13T07:13:02.719Z,-7.32
2022-12-13T07:14:01.073Z,-7.31
2022-12-13T07:15:01.081Z,-7.25
2022-12-13T07:16:01.444Z,-7.40
2022-12-13T07:17:03.634Z,-7.43
2022-12-13T07:18:02.050Z,-7.53
2022-12-13T07:19:01.662Z,-7.49
2022-12-13T07:20:01.407Z,-7.33
2022-12-13T07:21:01.030Z,-7.35
2022-12-13T07:22:01.342Z,-7.33
2022-12-13T07:23:01.012Z,-7.26
2022-12-13T07:24:01.015Z,-7.25
2022-12-13T07:25:01.792Z,-7.22
2022-12-13T07:26:01.723Z,-7.31
2022-12-13T07:27:00.989Z,-7.33
2022-12-13T07:28:02.089Z,-7.47
2022-12-13T07:29:00.974Z,-7.35
2022-12-13T07:30:01.963Z,-7.38
2022-12-13T07:31:00.995Z,-7.43
2022-12-13T07:32:02.237Z,-7.58
2022-12-13T07:33:00.939Z,-7.63
2022-12-13T07:34:00.938Z,-7.65
2022-12-13T07:35:00.922Z,-7.67
2022-12-13T07:36:00.914Z,-7.65
2022-12-13T07:37:00.907Z,-7.68
2022-12-13T07:38:00.909Z,-7.65
2022-12-13T07:39:02.716Z,-7.64
2022-12-13T07:40:04.414Z,-7.52
2022-12-13T07:41:01.934Z,-7.42
2022-12-13T07:42:00.868Z,-7.42
2022-12-13T07:43:00.858Z,-7.47
2022-12-13T07:44:00.860Z,-7.40
2022-12-13T07:45:00.847Z,-7.40
2022-12-13T07:46:00.906Z,-7.44
2022-12-13T07:47:00.889Z,-7.33
2022-12-13T07:48:00.824Z,-7.17
2022-12-13T07:49:01.785Z,-7.31
2022-12-13T07:50:01.619Z,-7.31
2022-12-13T07:51:00.828Z,-7.26
2022-12-13T07:52:00.792Z,-7.17
2022-12-13T07:53:01.738Z,-7.23
2022-12-13T07:54:00.792Z,-7.22
2022-12-13T07:55:01.774Z,-7.17
2022-12-13T07:56:00.761Z,-7.21
2022-12-13T07:57:04.397Z,-7.26
2022-12-13T07:58:01.770Z,-7.15
2022-12-13T07:59:00.747Z,-7.10
2022-12-13T08:00:01.738Z,-6.97
2022-12-13T08:01:00.726Z,-7.05
2022-12-13T08:02:01.742Z,-6.89
2022-12-13T08:03:00.723Z,-6.89
2022-12-13T08:04:00.722Z,-6.94
2022-12-13T08:05:26.147Z,-6.86
2022-12-13T08:06:01.737Z,-6.87
2022-12-13T08:07:00.742Z,-6.84
2022-12-13T08:08:00.751Z,-6.78
2022-12-13T08:09:00.680Z,-6.79
2022-12-13T08:10:00.660Z,-6.79
2022-12-13T08:11:01.542Z,-6.74
2022-12-13T08:12:01.234Z,-6.74
2022-12-13T08:13:01.223Z,-6.76
2022-12-13T08:14:00.654Z,-6.76
2022-12-13T08:15:01.223Z,-6.79
2022-12-13T08:16:00.696Z,-6.92
2022-12-13T08:17:00.642Z,-6.79
2022-12-13T08:18:00.605Z,-6.83
2022-12-13T08:19:02.399Z,-6.83
2022-12-13T08:20:00.728Z,-6.74
2022-12-13T08:21:00.622Z,-6.69
2022-12-13T08:22:01.481Z,-6.61
2022-12-13T08:23:02.001Z,-6.61
2022-12-13T08:24:00.576Z,-6.66
2022-12-13T08:25:00.549Z,-6.65
2022-12-13T08:26:00.538Z,-6.66
2022-12-13T08:27:00.527Z,-6.66
2022-12-13T08:28:01.988Z,-6.60
2022-12-13T08:29:00.516Z,-6.79
2022-12-13T08:30:00.512Z,-6.71
2022-12-13T08:31:00.552Z,-6.60
2022-12-13T08:32:01.366Z,-6.54
2022-12-13T08:33:05.207Z,-6.69
2022-12-13T08:34:00.478Z,-6.49
2022-12-13T08:35:01.220Z,-6.39
2022-12-13T08:36:00.458Z,-6.47
2022-12-13T08:37:03.157Z,-6.46
2022-12-13T08:38:01.345Z,-6.44
2022-12-13T08:39:00.430Z,-6.52
2022-12-13T08:40:00.431Z,-6.38
2022-12-13T08:41:00.422Z,-6.36
2022-12-13T08:42:00.421Z,-6.32
2022-12-13T08:43:01.409Z,-6.34
2022-12-13T08:44:01.396Z,-6.41
2022-12-13T08:45:00.391Z,-6.35
2022-12-13T08:46:01.097Z,-6.31
2022-12-13T08:47:00.455Z,-6.47
2022-12-13T08:48:00.382Z,-6.46
2022-12-13T08:49:00.425Z,-6.34
2022-12-13T08:50:02.639Z,-6.35
2022-12-13T08:51:00.346Z,-6.69
2022-12-13T08:52:00.342Z,-6.71
2022-12-13T08:53:00.350Z,-6.81
2022-12-13T08:54:10.708Z,-6.68
2022-12-13T08:55:01.303Z,-6.72
2022-12-13T08:56:01.310Z,-6.68
2022-12-13T08:57:00.309Z,-6.46
2022-12-13T08:58:01.078Z,-6.38
2022-12-13T08:59:00.290Z,-6.23
2022-12-13T09:00:00.295Z,-6.28
2022-12-13T09:01:01.276Z,-6.15
2022-12-13T09:03:09.816Z,-6.07
2022-12-13T09:04:07.421Z,-6.02
2022-12-13T09:05:07.725Z,-6.08
2022-12-13T09:06:06.547Z,-5.95
2022-12-13T09:07:09.455Z,-5.86
2022-12-13T09:08:23.156Z,-5.93
2022-12-13T09:09:08.618Z,-5.97
2022-12-13T09:10:25.556Z,-5.85
2022-12-13T09:11:10.449Z,-5.93
2022-12-13T09:12:10.925Z,-5.90
2022-12-13T09:13:11.714Z,-5.85
2022-12-13T09:14:07.575Z,-5.89
2022-12-13T09:15:22.178Z,-5.86
2022-12-13T09:16:14.014Z,-6.26
2022-12-13T09:17:08.621Z,-6.46
2022-12-13T09:18:08.541Z,-6.28
2022-12-13T09:19:26.264Z,-6.24
2022-12-13T09:20:10.309Z,-6.08
2022-12-13T09:21:10.732Z,-6.05
2022-12-13T09:22:07.512Z,-6.00
2022-12-13T09:23:08.498Z,-5.89
2022-12-13T09:24:23.478Z,-5.79
2022-12-13T09:25:08.485Z,-5.93
2022-12-13T09:26:08.478Z,-5.82
2022-12-13T09:27:09.740Z,-5.72
2022-12-13T09:28:07.468Z,-5.84
2022-12-13T09:29:10.925Z,-6.00
2022-12-13T09:30:07.453Z,-6.14
2022-12-13T09:31:07.472Z,-5.99
2022-12-13T09:32:07.457Z,-6.10
2022-12-13T09:33:18.277Z,-6.08
2022-12-13T09:34:08.473Z,-6.10
2022-12-13T09:35:07.412Z,-6.05
2022-12-13T09:36:07.420Z,-5.95
2022-12-13T09:37:07.423Z,-5.86
2022-12-13T09:38:07.390Z,-5.79
2022-12-13T09:39:07.378Z,-5.67
2022-12-13T09:40:16.058Z,-5.57
2022-12-13T09:41:10.148Z,-5.53
2022-12-13T09:42:10.606Z,-5.75
2022-12-13T09:43:21.823Z,-5.85
2022-12-13T09:44:32.401Z,-5.97
2022-12-13T09:45:21.979Z,-6.05
2022-12-13T09:46:13.387Z,-6.07
2022-12-13T09:47:13.546Z,-6.07
2022-12-13T09:48:13.562Z,-6.11
2022-12-13T09:49:13.146Z,-6.13
2022-12-13T09:50:07.399Z,-6.20
2022-12-13T09:51:17.050Z,-6.15
2022-12-13T09:52:11.802Z,-5.97
2022-12-13T09:53:12.022Z,-5.78
2022-12-13T09:54:08.271Z,-5.74
2022-12-13T09:55:10.857Z,-5.49
2022-12-13T09:56:10.269Z,-5.51
2022-12-13T09:57:07.247Z,-5.45
2022-12-13T09:58:07.271Z,-5.47
2022-12-13T09:59:07.239Z,-5.35
2022-12-13T10:00:07.924Z,-5.36
2022-12-13T10:02:14.072Z,-5.09
2022-12-13T10:03:14.026Z,-5.00
2022-12-13T10:04:14.023Z,-4.92
2022-12-13T10:05:23.252Z,-4.87
2022-12-13T10:06:14.999Z,-4.85
2022-12-13T10:07:15.000Z,-4.87
2022-12-13T10:08:14.884Z,-4.91
2022-12-13T10:09:13.974Z,-4.91
2022-12-13T10:10:13.970Z,-4.98
2022-12-13T10:11:13.976Z,-4.88
2022-12-13T10:12:13.952Z,-4.96
2022-12-13T10:13:13.948Z,-4.91
2022-12-13T10:14:14.878Z,-4.85
2022-12-13T10:15:13.933Z,-4.78
2022-12-13T10:16:14.974Z,-4.78
2022-12-13T10:17:16.004Z,-4.79
2022-12-13T10:18:15.000Z,-4.71
2022-12-13T10:19:29.009Z,-4.79
2022-12-13T10:20:17.002Z,-4.70
2022-12-13T10:21:14.988Z,-4.73
2022-12-13T10:22:14.960Z,-4.81
2022-12-13T10:23:35.755Z,-4.85
2022-12-13T10:24:27.257Z,-4.71
2022-12-13T10:25:16.949Z,-4.91
2022-12-13T10:26:24.501Z,-4.92
2022-12-13T10:27:15.936Z,-5.09
2022-12-13T10:28:14.931Z,-4.91
2022-12-13T10:29:16.489Z,-4.95
2022-12-13T10:30:14.916Z,-5.13
2022-12-13T10:31:14.943Z,-5.46
2022-12-13T10:32:14.929Z,-5.47
2022-12-13T10:33:14.887Z,-5.45
2022-12-13T10:34:15.882Z,-5.51
2022-12-13T10:35:14.883Z,-5.31
2022-12-13T10:36:14.853Z,-5.42
2022-12-13T10:37:14.901Z,-5.46
2022-12-13T10:38:15.497Z,-5.35
2022-12-13T10:39:14.842Z,-5.42
2022-12-13T10:40:14.835Z,-5.28
2022-12-13T10:41:16.468Z,-5.22
2022-12-13T10:42:23.591Z,-5.31
2022-12-13T10:43:15.814Z,-5.39
2022-12-13T10:44:14.805Z,-5.35
2022-12-13T10:45:14.798Z,-5.29
2022-12-13T10:46:15.807Z,-5.43
2022-12-13T10:47:17.104Z,-5.27
2022-12-13T10:48:14.788Z,-5.33
2022-12-13T10:49:14.781Z,-5.38
2022-12-13T10:50:14.771Z,-5.31
2022-12-13T10:51:14.882Z,-5.33
2022-12-13T10:52:14.739Z,-5.40
2022-12-13T10:53:14.756Z,-5.24
2022-12-13T10:54:14.731Z,-5.33
2022-12-13T10:55:22.981Z,-5.28
2022-12-13T10:56:15.712Z,-5.35
2022-12-13T10:57:15.710Z,-5.40
2022-12-13T10:58:15.686Z,-5.51
2022-12-13T10:59:17.619Z,-5.45
2022-12-13T11:00:15.710Z,-5.49
2022-12-13T11:01:14.701Z,-5.56
2022-12-13T11:02:14.803Z,-5.51
2022-12-13T11:03:14.648Z,-5.46
2022-12-13T11:04:14.681Z,-5.49
2022-12-13T11:05:15.471Z,-5.45
2022-12-13T11:06:15.667Z,-5.43
2022-12-13T11:07:14.669Z,-5.54
2022-12-13T11:08:14.632Z,-5.56
2022-12-13T11:09:22.892Z,-5.38
2022-12-13T11:10:15.609Z,-5.39
2022-12-13T11:11:14.610Z,-5.39
2022-12-13T11:12:14.603Z,-5.39
2022-12-13T11:13:14.578Z,-5.35
2022-12-13T11:14:14.582Z,-5.42
2022-12-13T11:15:14.572Z,-5.38
2022-12-13T11:16:14.587Z,-5.33
2022-12-13T11:17:14.547Z,-5.40
2022-12-13T11:18:14.538Z,-5.29
2022-12-13T11:19:14.581Z,-5.22
2022-12-13T11:20:16.418Z,-5.21
2022-12-13T11:21:14.553Z,-5.27
2022-12-13T11:22:14.649Z,-5.13
2022-12-13T11:23:14.524Z,-5.22
2022-12-13T11:24:14.491Z,-5.06
2022-12-13T11:25:16.400Z,-5.19
2022-12-13T11:26:14.474Z,-5.10
2022-12-13T11:27:14.470Z,-5.13
2022-12-13T11:28:25.783Z,-5.13
2022-12-13T11:29:15.471Z,-5.09
2022-12-13T11:30:15.445Z,-5.18
2022-12-13T11:31:14.434Z,-5.19
2022-12-13T11:32:14.471Z,-5.18
2022-12-13T11:33:15.444Z,-5.05
2022-12-13T11:34:15.547Z,-5.13
2022-12-13T11:35:14.405Z,-5.14
2022-12-13T11:36:14.401Z,-5.06
2022-12-13T11:37:14.393Z,-5.14
2022-12-13T11:38:15.411Z,-5.08
2022-12-13T11:39:14.387Z,-4.95
2022-12-13T11:40:14.485Z,-5.00
2022-12-13T11:41:14.384Z,-4.92
2022-12-13T11:42:15.354Z,-4.91
2022-12-13T11:43:14.348Z,-4.87
2022-12-13T11:44:14.415Z,-4.87
2022-12-13T11:45:23.656Z,-4.82
2022-12-13T11:46:15.402Z,-4.69
2022-12-13T11:47:14.324Z,-4.73
2022-12-13T11:48:14.353Z,-4.77
2022-12-13T11:49:14.307Z,-4.85
2022-12-13T11:50:18.963Z,-4.79
2022-12-13T11:51:16.898Z,-4.71
2022-12-13T11:52:14.297Z,-4.73
2022-12-13T11:53:14.274Z,-4.70
2022-12-13T11:54:14.271Z,-4.67
2022-12-13T11:55:15.292Z,-4.71
2022-12-13T11:56:14.287Z,-4.61
2022-12-13T11:57:14.938Z,-4.57
2022-12-13T11:58:16.459Z,-4.49
2022-12-13T11:59:25.992Z,-4.50
2022-12-13T12:00:34.458Z,-4.57
2022-12-13T12:01:15.229Z,-4.60
2022-12-13T12:02:17.585Z,-4.50
2022-12-13T12:03:27.075Z,-4.50
2022-12-13T12:04:15.944Z,-4.49
2022-12-13T12:05:14.218Z,-4.39
2022-12-13T12:06:14.906Z,-4.41
2022-12-13T12:07:31.663Z,-4.46
2022-12-13T12:08:31.647Z,-4.46
2022-12-13T12:09:16.164Z,-4.48
2022-12-13T12:10:14.168Z,-4.46
2022-12-13T12:11:14.895Z,-4.49
2022-12-13T12:12:16.016Z,-4.38
2022-12-13T12:13:15.895Z,-4.43
2022-12-13T12:14:14.979Z,-4.48
2022-12-13T12:15:15.626Z,-4.41
2022-12-13T12:16:17.035Z,-4.35
2022-12-13T12:17:15.024Z,-4.42
2022-12-13T12:18:14.107Z,-4.35
2022-12-13T12:19:47.438Z,-4.41
2022-12-13T12:20:14.125Z,-4.42
2022-12-13T12:21:16.021Z,-4.49
2022-12-13T12:22:15.143Z,-4.50
2022-12-13T12:23:15.037Z,-4.43
2022-12-13T12:24:14.032Z,-4.48
2022-12-13T12:25:14.053Z,-4.53
2022-12-13T12:26:14.021Z,-4.50
2022-12-13T12:27:14.015Z,-4.48
2022-12-13T12:28:16.574Z,-4.48
2022-12-13T12:29:14.994Z,-4.42
2022-12-13T12:30:13.998Z,-4.50
2022-12-13T12:31:15.030Z,-4.46
2022-12-13T12:32:13.982Z,-4.43
2022-12-13T12:33:14.977Z,-4.43
2022-12-13T12:34:15.527Z,-4.39
2022-12-13T12:35:13.948Z,-4.46
2022-12-13T12:36:13.947Z,-4.27
2022-12-13T12:37:14.526Z,-4.27
2022-12-13T12:38:13.986Z,-4.27
2022-12-13T12:39:14.433Z,-4.25
2022-12-13T12:40:14.433Z,-4.16
2022-12-13T12:41:16.394Z,-4.21
2022-12-13T12:42:14.902Z,-4.17
2022-12-13T12:43:16.109Z,-4.22
2022-12-13T12:44:14.884Z,-4.24
2022-12-13T12:45:27.044Z,-4.28
2022-12-13T12:46:15.907Z,-4.22
2022-12-13T12:49:15.901Z,-4.22
2022-12-13T12:50:13.838Z,-4.27
2022-12-13T12:51:13.835Z,-4.25
2022-12-13T12:52:13.826Z,-4.21
2022-12-13T12:53:14.515Z,-4.17
2022-12-13T12:54:13.811Z,-4.10
2022-12-13T12:55:13.795Z,-4.03
2022-12-13T12:56:14.437Z,-4.03
2022-12-13T12:57:14.433Z,-3.95
2022-12-13T12:58:13.771Z,-3.95
2022-12-13T12:59:13.774Z,-3.91